sensor_id;sensor_type;location;lat;lon;timestamp;temperature;humidity
40600;DHT22;26309;50.924;4.754;2022-11-15T00:00:44;11.90;99.90
40600;DHT22;26309;50.924;4.754;2022-11-15T00:03:09;11.90;99.90
40600;DHT22;26309;50.924;4.754;2022-11-15T00:05:35;12.00;99.90
40600;DHT22;26309;50.924;4.754;2022-11-15T00:08:01;12.10;99.90
40600;DHT22;26309;50.924;4.754;2022-11-15T00:10:27;12.00;99.90
40600;DHT22;26309;50.924;4.754;2022-11-15T00:12:53;12.10;99.90
40600;DHT22;26309;50.924;4.754;2022-11-15T00:15:18;12.00;99.90
40600;DHT22;26309;50.924;4.754;2022-11-15T00:17:44;12.10;99.90
40600;DHT22;26309;50.924;4.754;2022-11-15T00:20:13;12.10;99.90
40600;DHT22;26309;50.924;4.754;2022-11-15T00:22:39;12.20;99.90
40600;DHT22;26309;50.924;4.754;2022-11-15T00:25:05;12.20;99.90
40600;DHT22;26309;50.924;4.754;2022-11-15T00:27:31;12.20;99.90
40600;DHT22;26309;50.924;4.754;2022-11-15T00:29:57;12.10;99.90
40600;DHT22;26309;50.924;4.754;2022-11-15T00:32:23;12.10;99.90
40600;DHT22;26309;50.924;4.754;2022-11-15T00:34:49;12.20;99.90
40600;DHT22;26309;50.924;4.754;2022-11-15T00:37:14;12.20;99.90
40600;DHT22;26309;50.924;4.754;2022-11-15T00:39:40;12.30;99.90
40600;DHT22;26309;50.924;4.754;2022-11-15T00:42:06;12.20;99.90
40600;DHT22;26309;50.924;4.754;2022-11-15T00:44:32;12.20;99.90
40600;DHT22;26309;50.924;4.754;2022-11-15T00:46:58;12.20;99.90
40600;DHT22;26309;50.924;4.754;2022-11-15T00:49:23;12.20;99.90
40600;DHT22;26309;50.924;4.754;2022-11-15T00:51:49;12.30;99.90
40600;DHT22;26309;50.924;4.754;2022-11-15T00:54:15;12.30;99.90
40600;DHT22;26309;50.924;4.754;2022-11-15T00:56:41;12.40;99.90
40600;DHT22;26309;50.924;4.754;2022-11-15T00:59:06;12.50;99.90
40600;DHT22;26309;50.924;4.754;2022-11-15T01:01:32;12.60;99.90
40600;DHT22;26309;50.924;4.754;2022-11-15T01:03:58;12.60;99.90
40600;DHT22;26309;50.924;4.754;2022-11-15T01:06:23;12.60;99.90
40600;DHT22;26309;50.924;4.754;2022-11-15T01:08:49;12.50;99.90
40600;DHT22;26309;50.924;4.754;2022-11-15T01:11:15;12.50;99.90
40600;DHT22;26309;50.924;4.754;2022-11-15T01:13:41;12.50;99.90
40600;DHT22;26309;50.924;4.754;2022-11-15T01:16:13;12.60;99.90
40600;DHT22;26309;50.924;4.754;2022-11-15T01:18:39;12.50;99.90
40600;DHT22;26309;50.924;4.754;2022-11-15T01:21:07;12.50;99.90
40600;DHT22;26309;50.924;4.754;2022-11-15T01:23:33;12.80;99.90
40600;DHT22;26309;50.924;4.754;2022-11-15T01:26:04;12.70;99.90
40600;DHT22;26309;50.924;4.754;2022-11-15T01:28:34;12.80;99.90
40600;DHT22;26309;50.924;4.754;2022-11-15T01:31:03;12.60;99.90
40600;DHT22;26309;50.924;4.754;2022-11-15T01:33:30;12.60;99.90
40600;DHT22;26309;50.924;4.754;2022-11-15T01:35:55;12.60;99.90
40600;DHT22;26309;50.924;4.754;2022-11-15T01:38:22;12.60;99.90
40600;DHT22;26309;50.924;4.754;2022-11-15T01:40:48;12.70;99.90
40600;DHT22;26309;50.924;4.754;2022-11-15T01:43:34;12.80;99.90
40600;DHT22;26309;50.924;4.754;2022-11-15T01:48:45;12.80;99.90
40600;DHT22;26309;50.924;4.754;2022-11-15T01:51:12;12.80;99.90
40600;DHT22;26309;50.924;4.754;2022-11-15T01:53:42;12.80;99.90
40600;DHT22;26309;50.924;4.754;2022-11-15T01:56:13;12.80;99.90
40600;DHT22;26309;50.924;4.754;2022-11-15T01:58:40;12.80;99.90
40600;DHT22;26309;50.924;4.754;2022-11-15T02:01:07;12.80;99.90
40600;DHT22;26309;50.924;4.754;2022-11-15T02:03:59;12.90;99.90
40600;DHT22;26309;50.924;4.754;2022-11-15T02:06:25;12.90;99.90
40600;DHT22;26309;50.924;4.754;2022-11-15T02:08:51;12.90;99.90
40600;DHT22;26309;50.924;4.754;2022-11-15T02:11:17;12.90;99.90
40600;DHT22;26309;50.924;4.754;2022-11-15T02:13:43;12.90;99.90
40600;DHT22;26309;50.924;4.754;2022-11-15T02:16:27;12.90;99.90
40600;DHT22;26309;50.924;4.754;2022-11-15T02:21:43;12.90;99.90
40600;DHT22;26309;50.924;4.754;2022-11-15T02:30:45;13.00;99.90
40600;DHT22;26309;50.924;4.754;2022-11-15T02:35:59;13.00;99.90
40600;DHT22;26309;50.924;4.754;2022-11-15T02:41:11;13.00;99.90
40600;DHT22;26309;50.924;4.754;2022-11-15T02:44:00;13.10;99.90
40600;DHT22;26309;50.924;4.754;2022-11-15T02:49:36;12.90;99.90
40600;DHT22;26309;50.924;4.754;2022-11-15T02:52:03;12.90;99.90
40600;DHT22;26309;50.924;4.754;2022-11-15T02:54:31;12.80;99.90
40600;DHT22;26309;50.924;4.754;2022-11-15T02:57:17;12.90;99.90
40600;DHT22;26309;50.924;4.754;2022-11-15T03:00:07;12.80;99.90
40600;DHT22;26309;50.924;4.754;2022-11-15T03:13:13;12.90;99.90
40600;DHT22;26309;50.924;4.754;2022-11-15T03:15:50;12.80;99.90
40600;DHT22;26309;50.924;4.754;2022-11-15T03:18:30;12.90;99.90
40600;DHT22;26309;50.924;4.754;2022-11-15T03:21:00;12.80;99.90
40600;DHT22;26309;50.924;4.754;2022-11-15T03:23:28;12.80;99.90
40600;DHT22;26309;50.924;4.754;2022-11-15T03:25:56;13.00;99.90
40600;DHT22;26309;50.924;4.754;2022-11-15T03:28:31;12.90;99.90
40600;DHT22;26309;50.924;4.754;2022-11-15T03:31:02;12.90;99.90
40600;DHT22;26309;50.924;4.754;2022-11-15T03:33:52;12.90;99.90
40600;DHT22;26309;50.924;4.754;2022-11-15T03:36:21;13.00;99.90
40600;DHT22;26309;50.924;4.754;2022-11-15T03:38:47;13.00;99.90
40600;DHT22;26309;50.924;4.754;2022-11-15T03:41:35;13.00;99.90
40600;DHT22;26309;50.924;4.754;2022-11-15T03:47:07;13.00;99.90
40600;DHT22;26309;50.924;4.754;2022-11-15T03:49:42;13.00;99.90
40600;DHT22;26309;50.924;4.754;2022-11-15T03:52:10;13.10;99.90
40600;DHT22;26309;50.924;4.754;2022-11-15T03:54:46;13.10;99.90
40600;DHT22;26309;50.924;4.754;2022-11-15T03:57:12;13.00;99.90
40600;DHT22;26309;50.924;4.754;2022-11-15T03:59:38;12.90;99.90
40600;DHT22;26309;50.924;4.754;2022-11-15T04:02:04;12.90;99.90
40600;DHT22;26309;50.924;4.754;2022-11-15T04:04:30;12.90;99.90
40600;DHT22;26309;50.924;4.754;2022-11-15T04:06:55;12.90;99.90
40600;DHT22;26309;50.924;4.754;2022-11-15T04:09:21;12.80;99.90
40600;DHT22;26309;50.924;4.754;2022-11-15T04:11:47;12.90;99.90
40600;DHT22;26309;50.924;4.754;2022-11-15T04:14:13;13.10;99.90
40600;DHT22;26309;50.924;4.754;2022-11-15T04:16:38;13.20;99.90
40600;DHT22;26309;50.924;4.754;2022-11-15T04:19:04;13.10;99.90
40600;DHT22;26309;50.924;4.754;2022-11-15T04:21:48;13.10;99.90
40600;DHT22;26309;50.924;4.754;2022-11-15T04:24:32;12.90;99.90
40600;DHT22;26309;50.924;4.754;2022-11-15T04:26:58;12.90;99.90
40600;DHT22;26309;50.924;4.754;2022-11-15T04:29:24;12.80;99.90
40600;DHT22;26309;50.924;4.754;2022-11-15T04:32:06;12.80;99.90
40600;DHT22;26309;50.924;4.754;2022-11-15T04:34:32;12.80;99.90
40600;DHT22;26309;50.924;4.754;2022-11-15T04:36:58;12.80;99.90
40600;DHT22;26309;50.924;4.754;2022-11-15T04:39:43;12.80;99.90
40600;DHT22;26309;50.924;4.754;2022-11-15T04:42:09;12.70;99.90
40600;DHT22;26309;50.924;4.754;2022-11-15T04:44:35;12.80;99.90
40600;DHT22;26309;50.924;4.754;2022-11-15T04:47:02;12.70;99.90
40600;DHT22;26309;50.924;4.754;2022-11-15T04:49:28;12.70;99.90
40600;DHT22;26309;50.924;4.754;2022-11-15T04:51:54;12.70;99.90
40600;DHT22;26309;50.924;4.754;2022-11-15T04:54:19;12.60;99.90
40600;DHT22;26309;50.924;4.754;2022-11-15T04:56:45;12.60;99.90
40600;DHT22;26309;50.924;4.754;2022-11-15T04:59:11;12.50;99.90
40600;DHT22;26309;50.924;4.754;2022-11-15T05:01:37;12.40;99.90
40600;DHT22;26309;50.924;4.754;2022-11-15T05:04:02;12.40;99.90
40600;DHT22;26309;50.924;4.754;2022-11-15T05:06:48;12.40;99.90
40600;DHT22;26309;50.924;4.754;2022-11-15T05:09:14;12.30;99.90
40600;DHT22;26309;50.924;4.754;2022-11-15T05:11:40;12.30;99.90
40600;DHT22;26309;50.924;4.754;2022-11-15T05:14:06;12.30;99.90
40600;DHT22;26309;50.924;4.754;2022-11-15T05:16:32;12.20;99.90
40600;DHT22;26309;50.924;4.754;2022-11-15T05:18:57;12.10;99.90
40600;DHT22;26309;50.924;4.754;2022-11-15T05:21:24;12.00;99.90
40600;DHT22;26309;50.924;4.754;2022-11-15T05:23:50;12.00;99.90
40600;DHT22;26309;50.924;4.754;2022-11-15T05:26:16;12.10;99.90
40600;DHT22;26309;50.924;4.754;2022-11-15T05:28:43;12.00;99.90
40600;DHT22;26309;50.924;4.754;2022-11-15T05:31:11;12.00;99.90
40600;DHT22;26309;50.924;4.754;2022-11-15T05:33:39;12.10;99.90
40600;DHT22;26309;50.924;4.754;2022-11-15T05:36:29;12.10;99.90
40600;DHT22;26309;50.924;4.754;2022-11-15T05:38:57;12.00;99.90
40600;DHT22;26309;50.924;4.754;2022-11-15T05:41:38;12.10;99.90
40600;DHT22;26309;50.924;4.754;2022-11-15T05:44:07;12.00;99.90
40600;DHT22;26309;50.924;4.754;2022-11-15T05:46:35;12.10;99.90
40600;DHT22;26309;50.924;4.754;2022-11-15T05:49:06;12.00;99.90
40600;DHT22;26309;50.924;4.754;2022-11-15T05:51:33;11.90;99.90
40600;DHT22;26309;50.924;4.754;2022-11-15T05:54:00;11.90;99.90
40600;DHT22;26309;50.924;4.754;2022-11-15T05:56:26;11.80;99.90
40600;DHT22;26309;50.924;4.754;2022-11-15T05:58:53;11.80;99.90
40600;DHT22;26309;50.924;4.754;2022-11-15T06:01:20;11.90;99.90
40600;DHT22;26309;50.924;4.754;2022-11-15T06:03:45;11.80;99.90
40600;DHT22;26309;50.924;4.754;2022-11-15T06:06:11;11.80;99.90
40600;DHT22;26309;50.924;4.754;2022-11-15T06:08:37;11.70;99.90
40600;DHT22;26309;50.924;4.754;2022-11-15T06:11:07;11.60;99.90
40600;DHT22;26309;50.924;4.754;2022-11-15T06:13:33;11.60;99.90
40600;DHT22;26309;50.924;4.754;2022-11-15T06:16:00;11.60;99.90
40600;DHT22;26309;50.924;4.754;2022-11-15T06:18:26;11.50;99.90
40600;DHT22;26309;50.924;4.754;2022-11-15T06:20:52;11.50;99.90
40600;DHT22;26309;50.924;4.754;2022-11-15T06:23:18;11.60;99.90
40600;DHT22;26309;50.924;4.754;2022-11-15T06:25:43;11.50;99.90
40600;DHT22;26309;50.924;4.754;2022-11-15T06:28:09;11.50;99.90
40600;DHT22;26309;50.924;4.754;2022-11-15T06:30:35;11.50;99.90
40600;DHT22;26309;50.924;4.754;2022-11-15T06:33:05;11.50;99.90
40600;DHT22;26309;50.924;4.754;2022-11-15T06:35:34;11.30;99.90
40600;DHT22;26309;50.924;4.754;2022-11-15T06:38:05;11.20;99.90
40600;DHT22;26309;50.924;4.754;2022-11-15T06:40:36;11.20;99.90
40600;DHT22;26309;50.924;4.754;2022-11-15T06:43:03;11.00;99.90
40600;DHT22;26309;50.924;4.754;2022-11-15T06:45:30;11.00;99.90
40600;DHT22;26309;50.924;4.754;2022-11-15T06:47:56;10.90;99.90
40600;DHT22;26309;50.924;4.754;2022-11-15T06:50:22;10.90;99.90
40600;DHT22;26309;50.924;4.754;2022-11-15T06:52:48;10.90;99.90
40600;DHT22;26309;50.924;4.754;2022-11-15T06:55:14;10.80;99.90
40600;DHT22;26309;50.924;4.754;2022-11-15T06:57:48;10.90;99.90
40600;DHT22;26309;50.924;4.754;2022-11-15T07:00:14;10.80;99.90
40600;DHT22;26309;50.924;4.754;2022-11-15T07:02:41;10.80;99.90
40600;DHT22;26309;50.924;4.754;2022-11-15T07:05:06;10.90;99.90
40600;DHT22;26309;50.924;4.754;2022-11-15T07:07:32;10.70;99.90
40600;DHT22;26309;50.924;4.754;2022-11-15T07:09:58;10.60;99.90
40600;DHT22;26309;50.924;4.754;2022-11-15T07:12:24;10.70;99.90
40600;DHT22;26309;50.924;4.754;2022-11-15T07:14:49;10.70;99.90
40600;DHT22;26309;50.924;4.754;2022-11-15T07:17:15;10.60;99.90
40600;DHT22;26309;50.924;4.754;2022-11-15T07:19:41;10.60;99.90
40600;DHT22;26309;50.924;4.754;2022-11-15T07:22:07;10.50;99.90
40600;DHT22;26309;50.924;4.754;2022-11-15T07:24:33;10.40;99.90
40600;DHT22;26309;50.924;4.754;2022-11-15T07:26:58;10.40;99.90
40600;DHT22;26309;50.924;4.754;2022-11-15T07:29:24;10.40;99.90
40600;DHT22;26309;50.924;4.754;2022-11-15T07:31:50;10.40;99.90
40600;DHT22;26309;50.924;4.754;2022-11-15T07:34:16;10.40;99.90
40600;DHT22;26309;50.924;4.754;2022-11-15T07:36:41;10.40;99.90
40600;DHT22;26309;50.924;4.754;2022-11-15T07:39:07;10.50;99.90
40600;DHT22;26309;50.924;4.754;2022-11-15T07:41:33;10.40;99.90
40600;DHT22;26309;50.924;4.754;2022-11-15T07:43:59;10.50;99.90
40600;DHT22;26309;50.924;4.754;2022-11-15T07:46:25;10.50;99.90
40600;DHT22;26309;50.924;4.754;2022-11-15T07:48:51;10.60;99.90
40600;DHT22;26309;50.924;4.754;2022-11-15T07:51:17;10.50;99.90
40600;DHT22;26309;50.924;4.754;2022-11-15T07:53:43;10.50;99.90
40600;DHT22;26309;50.924;4.754;2022-11-15T07:56:09;10.60;99.90
40600;DHT22;26309;50.924;4.754;2022-11-15T07:58:35;10.70;99.90
40600;DHT22;26309;50.924;4.754;2022-11-15T08:01:05;10.70;99.90
40600;DHT22;26309;50.924;4.754;2022-11-15T08:03:32;10.70;99.90
40600;DHT22;26309;50.924;4.754;2022-11-15T08:05:58;10.70;99.90
40600;DHT22;26309;50.924;4.754;2022-11-15T08:08:24;10.80;99.90
40600;DHT22;26309;50.924;4.754;2022-11-15T08:10:50;10.80;99.90
40600;DHT22;26309;50.924;4.754;2022-11-15T08:13:16;10.70;99.90
40600;DHT22;26309;50.924;4.754;2022-11-15T08:15:42;10.70;99.90
40600;DHT22;26309;50.924;4.754;2022-11-15T08:18:14;10.80;99.90
40600;DHT22;26309;50.924;4.754;2022-11-15T08:20:40;11.00;99.90
40600;DHT22;26309;50.924;4.754;2022-11-15T08:23:07;11.00;99.90
40600;DHT22;26309;50.924;4.754;2022-11-15T08:25:34;10.90;99.90
40600;DHT22;26309;50.924;4.754;2022-11-15T08:28:03;10.90;99.90
40600;DHT22;26309;50.924;4.754;2022-11-15T08:30:30;11.00;99.90
40600;DHT22;26309;50.924;4.754;2022-11-15T08:32:58;11.20;99.90
40600;DHT22;26309;50.924;4.754;2022-11-15T08:35:24;11.20;99.90
40600;DHT22;26309;50.924;4.754;2022-11-15T08:37:51;11.10;99.90
40600;DHT22;26309;50.924;4.754;2022-11-15T08:40:17;11.00;99.90
40600;DHT22;26309;50.924;4.754;2022-11-15T08:42:46;11.00;99.90
40600;DHT22;26309;50.924;4.754;2022-11-15T08:45:12;11.10;99.90
40600;DHT22;26309;50.924;4.754;2022-11-15T08:47:38;11.10;99.90
40600;DHT22;26309;50.924;4.754;2022-11-15T08:50:05;11.20;99.90
40600;DHT22;26309;50.924;4.754;2022-11-15T08:52:31;11.20;99.90
40600;DHT22;26309;50.924;4.754;2022-11-15T08:54:57;11.30;99.90
40600;DHT22;26309;50.924;4.754;2022-11-15T08:57:23;11.30;99.90
40600;DHT22;26309;50.924;4.754;2022-11-15T08:59:49;11.30;99.90
40600;DHT22;26309;50.924;4.754;2022-11-15T09:02:16;11.20;99.90
40600;DHT22;26309;50.924;4.754;2022-11-15T09:04:42;11.30;99.90
40600;DHT22;26309;50.924;4.754;2022-11-15T09:07:10;11.20;99.90
40600;DHT22;26309;50.924;4.754;2022-11-15T09:09:36;11.30;99.90
40600;DHT22;26309;50.924;4.754;2022-11-15T09:12:02;11.30;99.90
40600;DHT22;26309;50.924;4.754;2022-11-15T09:14:29;11.40;99.90
40600;DHT22;26309;50.924;4.754;2022-11-15T09:16:54;11.30;99.90
40600;DHT22;26309;50.924;4.754;2022-11-15T09:19:21;11.30;99.90
40600;DHT22;26309;50.924;4.754;2022-11-15T09:21:46;11.50;99.90
40600;DHT22;26309;50.924;4.754;2022-11-15T09:24:12;11.60;99.90
40600;DHT22;26309;50.924;4.754;2022-11-15T09:26:39;11.70;99.90
40600;DHT22;26309;50.924;4.754;2022-11-15T09:29:05;11.80;99.90
40600;DHT22;26309;50.924;4.754;2022-11-15T09:31:30;11.90;99.90
40600;DHT22;26309;50.924;4.754;2022-11-15T09:33:56;11.90;99.90
40600;DHT22;26309;50.924;4.754;2022-11-15T09:36:23;11.90;99.90
40600;DHT22;26309;50.924;4.754;2022-11-15T09:38:49;11.90;99.90
40600;DHT22;26309;50.924;4.754;2022-11-15T09:49:29;12.00;99.90
40600;DHT22;26309;50.924;4.754;2022-11-15T09:51:55;12.10;99.90
40600;DHT22;26309;50.924;4.754;2022-11-15T09:57:37;12.30;99.90
40600;DHT22;26309;50.924;4.754;2022-11-15T10:05:20;12.50;99.90
40600;DHT22;26309;50.924;4.754;2022-11-15T10:08:12;12.50;99.90
40600;DHT22;26309;50.924;4.754;2022-11-15T10:10:42;12.50;99.90
40600;DHT22;26309;50.924;4.754;2022-11-15T10:13:36;12.60;99.90
40600;DHT22;26309;50.924;4.754;2022-11-15T10:27:45;12.50;99.90
40600;DHT22;26309;50.924;4.754;2022-11-15T10:30:16;12.50;99.90
40600;DHT22;26309;50.924;4.754;2022-11-15T10:32:44;12.50;99.90
40600;DHT22;26309;50.924;4.754;2022-11-15T10:37:44;12.60;99.90
40600;DHT22;26309;50.924;4.754;2022-11-15T10:40:22;12.60;99.90
40600;DHT22;26309;50.924;4.754;2022-11-15T10:45:32;12.80;99.90
40600;DHT22;26309;50.924;4.754;2022-11-15T10:48:20;12.90;99.90
40600;DHT22;26309;50.924;4.754;2022-11-15T10:50:47;12.90;99.90
40600;DHT22;26309;50.924;4.754;2022-11-15T10:53:21;13.00;99.90
40600;DHT22;26309;50.924;4.754;2022-11-15T10:55:51;12.90;99.90
40600;DHT22;26309;50.924;4.754;2022-11-15T10:58:42;13.00;99.90
40600;DHT22;26309;50.924;4.754;2022-11-15T11:01:17;13.00;99.90
40600;DHT22;26309;50.924;4.754;2022-11-15T11:03:45;13.00;99.90
40600;DHT22;26309;50.924;4.754;2022-11-15T11:06:22;13.00;99.90
40600;DHT22;26309;50.924;4.754;2022-11-15T11:09:10;13.00;99.90
40600;DHT22;26309;50.924;4.754;2022-11-15T11:11:47;13.00;99.90
40600;DHT22;26309;50.924;4.754;2022-11-15T11:14:21;13.00;99.90
40600;DHT22;26309;50.924;4.754;2022-11-15T11:30:18;13.40;99.90
40600;DHT22;26309;50.924;4.754;2022-11-15T11:39:09;13.50;99.90
40600;DHT22;26309;50.924;4.754;2022-11-15T11:41:55;13.50;99.90
40600;DHT22;26309;50.924;4.754;2022-11-15T11:52:41;13.70;99.90
40600;DHT22;26309;50.924;4.754;2022-11-15T11:55:29;13.70;99.90
40600;DHT22;26309;50.924;4.754;2022-11-15T11:58:13;13.80;99.90
40600;DHT22;26309;50.924;4.754;2022-11-15T12:00:56;13.80;99.90
40600;DHT22;26309;50.924;4.754;2022-11-15T12:16:58;13.90;99.90
40600;DHT22;26309;50.924;4.754;2022-11-15T12:19:24;13.90;99.90
40600;DHT22;26309;50.924;4.754;2022-11-15T12:29:49;14.10;99.90
40600;DHT22;26309;50.924;4.754;2022-11-15T12:32:31;14.20;99.90
40600;DHT22;26309;50.924;4.754;2022-11-15T12:35:01;14.20;99.90
40600;DHT22;26309;50.924;4.754;2022-11-15T12:45:34;14.00;99.90
40600;DHT22;26309;50.924;4.754;2022-11-15T12:51:05;14.20;99.90
40600;DHT22;26309;50.924;4.754;2022-11-15T12:53:32;14.10;99.90
40600;DHT22;26309;50.924;4.754;2022-11-15T12:59:01;14.10;99.90
40600;DHT22;26309;50.924;4.754;2022-11-15T13:12:02;14.20;99.90
40600;DHT22;26309;50.924;4.754;2022-11-15T13:14:51;14.30;99.90
40600;DHT22;26309;50.924;4.754;2022-11-15T13:17:26;14.30;99.90
40600;DHT22;26309;50.924;4.754;2022-11-15T13:20:02;14.30;99.90
40600;DHT22;26309;50.924;4.754;2022-11-15T13:22:52;14.40;99.90
40600;DHT22;26309;50.924;4.754;2022-11-15T13:35:51;14.60;99.90
40600;DHT22;26309;50.924;4.754;2022-11-15T13:40:50;14.70;99.90
40600;DHT22;26309;50.924;4.754;2022-11-15T13:48:43;14.60;99.90
40600;DHT22;26309;50.924;4.754;2022-11-15T13:54:58;14.60;99.90
40600;DHT22;26309;50.924;4.754;2022-11-15T13:57:29;14.60;99.90
40600;DHT22;26309;50.924;4.754;2022-11-15T14:00:00;14.50;99.90
40600;DHT22;26309;50.924;4.754;2022-11-15T14:02:31;14.60;99.90
40600;DHT22;26309;50.924;4.754;2022-11-15T14:05:17;14.50;99.90
40600;DHT22;26309;50.924;4.754;2022-11-15T14:08:00;14.50;99.90
40600;DHT22;26309;50.924;4.754;2022-11-15T14:10:33;14.60;99.90
40600;DHT22;26309;50.924;4.754;2022-11-15T14:13:00;14.50;99.90
40600;DHT22;26309;50.924;4.754;2022-11-15T14:15:36;14.50;99.90
40600;DHT22;26309;50.924;4.754;2022-11-15T14:18:03;14.50;99.90
40600;DHT22;26309;50.924;4.754;2022-11-15T14:25:31;14.50;99.90
40600;DHT22;26309;50.924;4.754;2022-11-15T14:28:27;14.60;99.90
40600;DHT22;26309;50.924;4.754;2022-11-15T14:30:57;14.60;99.90
40600;DHT22;26309;50.924;4.754;2022-11-15T14:33:34;14.60;99.90
40600;DHT22;26309;50.924;4.754;2022-11-15T14:36:10;14.60;99.90
40600;DHT22;26309;50.924;4.754;2022-11-15T14:38:37;14.70;99.90
40600;DHT22;26309;50.924;4.754;2022-11-15T14:41:03;14.60;99.90
40600;DHT22;26309;50.924;4.754;2022-11-15T14:43:28;14.60;99.90
40600;DHT22;26309;50.924;4.754;2022-11-15T14:45:54;14.50;99.90
40600;DHT22;26309;50.924;4.754;2022-11-15T14:48:20;14.50;99.90
40600;DHT22;26309;50.924;4.754;2022-11-15T14:50:47;14.50;99.90
40600;DHT22;26309;50.924;4.754;2022-11-15T14:53:17;14.30;99.90
40600;DHT22;26309;50.924;4.754;2022-11-15T14:55:44;14.20;99.90
40600;DHT22;26309;50.924;4.754;2022-11-15T14:58:10;14.10;99.90
40600;DHT22;26309;50.924;4.754;2022-11-15T15:00:40;14.10;99.90
40600;DHT22;26309;50.924;4.754;2022-11-15T15:03:06;14.00;99.90
40600;DHT22;26309;50.924;4.754;2022-11-15T15:07:59;13.90;99.90
40600;DHT22;26309;50.924;4.754;2022-11-15T15:10:29;13.80;99.90
40600;DHT22;26309;50.924;4.754;2022-11-15T15:12:56;13.80;99.90
40600;DHT22;26309;50.924;4.754;2022-11-15T15:15:25;13.90;99.90
40600;DHT22;26309;50.924;4.754;2022-11-15T15:17:55;13.80;99.90
40600;DHT22;26309;50.924;4.754;2022-11-15T15:20:21;13.80;99.90
40600;DHT22;26309;50.924;4.754;2022-11-15T15:22:46;13.70;99.90
40600;DHT22;26309;50.924;4.754;2022-11-15T15:27:47;13.70;99.90
40600;DHT22;26309;50.924;4.754;2022-11-15T15:30:13;13.70;99.90
40600;DHT22;26309;50.924;4.754;2022-11-15T15:32:39;13.90;99.90
40600;DHT22;26309;50.924;4.754;2022-11-15T15:35:05;13.80;99.90
40600;DHT22;26309;50.924;4.754;2022-11-15T15:37:31;13.80;99.90
40600;DHT22;26309;50.924;4.754;2022-11-15T15:39:59;13.70;99.90
40600;DHT22;26309;50.924;4.754;2022-11-15T15:42:25;13.80;99.90
40600;DHT22;26309;50.924;4.754;2022-11-15T15:44:51;13.70;99.90
40600;DHT22;26309;50.924;4.754;2022-11-15T15:47:20;13.70;99.90
40600;DHT22;26309;50.924;4.754;2022-11-15T15:49:47;13.60;99.90
40600;DHT22;26309;50.924;4.754;2022-11-15T15:52:13;13.60;99.90
40600;DHT22;26309;50.924;4.754;2022-11-15T15:54:39;13.70;99.90
40600;DHT22;26309;50.924;4.754;2022-11-15T15:57:06;13.60;99.90
40600;DHT22;26309;50.924;4.754;2022-11-15T15:59:32;13.60;99.90
40600;DHT22;26309;50.924;4.754;2022-11-15T16:01:58;13.60;99.90
40600;DHT22;26309;50.924;4.754;2022-11-15T16:04:24;13.50;99.90
40600;DHT22;26309;50.924;4.754;2022-11-15T16:06:51;13.50;99.90
40600;DHT22;26309;50.924;4.754;2022-11-15T16:09:19;13.50;99.90
40600;DHT22;26309;50.924;4.754;2022-11-15T16:12:05;13.50;99.90
40600;DHT22;26309;50.924;4.754;2022-11-15T16:14:31;13.30;99.90
40600;DHT22;26309;50.924;4.754;2022-11-15T16:16:57;13.40;99.90
40600;DHT22;26309;50.924;4.754;2022-11-15T16:19:23;13.30;99.90
40600;DHT22;26309;50.924;4.754;2022-11-15T16:21:49;13.30;99.90
40600;DHT22;26309;50.924;4.754;2022-11-15T16:24:18;13.40;99.90
40600;DHT22;26309;50.924;4.754;2022-11-15T16:26:45;13.40;99.90
40600;DHT22;26309;50.924;4.754;2022-11-15T16:29:11;13.40;99.90
40600;DHT22;26309;50.924;4.754;2022-11-15T16:31:37;13.40;99.90
40600;DHT22;26309;50.924;4.754;2022-11-15T16:34:03;13.30;99.90
40600;DHT22;26309;50.924;4.754;2022-11-15T16:36:31;13.40;99.90
40600;DHT22;26309;50.924;4.754;2022-11-15T16:38:58;13.30;99.90
40600;DHT22;26309;50.924;4.754;2022-11-15T16:41:24;13.20;99.90
40600;DHT22;26309;50.924;4.754;2022-11-15T16:43:50;13.30;99.90
40600;DHT22;26309;50.924;4.754;2022-11-15T16:46:23;13.30;99.90
40600;DHT22;26309;50.924;4.754;2022-11-15T16:48:50;13.20;99.90
40600;DHT22;26309;50.924;4.754;2022-11-15T16:51:16;13.10;99.90
40600;DHT22;26309;50.924;4.754;2022-11-15T16:53:43;13.10;99.90
40600;DHT22;26309;50.924;4.754;2022-11-15T16:56:32;13.00;99.90
40600;DHT22;26309;50.924;4.754;2022-11-15T16:59:00;13.10;99.90
40600;DHT22;26309;50.924;4.754;2022-11-15T17:01:36;13.00;99.90
40600;DHT22;26309;50.924;4.754;2022-11-15T17:04:16;13.10;99.90
40600;DHT22;26309;50.924;4.754;2022-11-15T17:06:44;13.10;99.90
40600;DHT22;26309;50.924;4.754;2022-11-15T17:09:16;13.20;99.90
40600;DHT22;26309;50.924;4.754;2022-11-15T17:11:42;13.20;99.90
40600;DHT22;26309;50.924;4.754;2022-11-15T17:14:08;13.20;99.90
40600;DHT22;26309;50.924;4.754;2022-11-15T17:16:35;13.20;99.90
40600;DHT22;26309;50.924;4.754;2022-11-15T17:19:03;13.30;99.90
40600;DHT22;26309;50.924;4.754;2022-11-15T17:21:30;13.30;99.90
40600;DHT22;26309;50.924;4.754;2022-11-15T17:23:58;13.30;99.90
40600;DHT22;26309;50.924;4.754;2022-11-15T17:26:24;13.40;99.90
40600;DHT22;26309;50.924;4.754;2022-11-15T17:28:54;13.30;99.90
40600;DHT22;26309;50.924;4.754;2022-11-15T17:31:21;13.30;99.90
40600;DHT22;26309;50.924;4.754;2022-11-15T17:33:46;13.20;99.90
40600;DHT22;26309;50.924;4.754;2022-11-15T17:36:12;13.20;99.90
40600;DHT22;26309;50.924;4.754;2022-11-15T17:38:40;13.30;99.90
40600;DHT22;26309;50.924;4.754;2022-11-15T17:41:10;13.30;99.90
40600;DHT22;26309;50.924;4.754;2022-11-15T17:43:37;13.40;99.90
40600;DHT22;26309;50.924;4.754;2022-11-15T17:46:05;13.40;99.90
40600;DHT22;26309;50.924;4.754;2022-11-15T17:48:31;13.30;99.90
40600;DHT22;26309;50.924;4.754;2022-11-15T17:51:00;13.20;99.90
40600;DHT22;26309;50.924;4.754;2022-11-15T17:53:27;13.40;99.90
40600;DHT22;26309;50.924;4.754;2022-11-15T17:56:01;13.40;99.90
40600;DHT22;26309;50.924;4.754;2022-11-15T17:58:33;13.40;99.90
40600;DHT22;26309;50.924;4.754;2022-11-15T18:03:42;13.40;99.90
40600;DHT22;26309;50.924;4.754;2022-11-15T18:06:08;13.50;99.90
40600;DHT22;26309;50.924;4.754;2022-11-15T18:08:35;13.60;99.90
40600;DHT22;26309;50.924;4.754;2022-11-15T18:11:17;13.50;99.90
40600;DHT22;26309;50.924;4.754;2022-11-15T18:13:45;13.50;99.90
40600;DHT22;26309;50.924;4.754;2022-11-15T18:16:18;13.50;99.90
40600;DHT22;26309;50.924;4.754;2022-11-15T18:18:44;13.40;99.90
40600;DHT22;26309;50.924;4.754;2022-11-15T18:21:15;13.40;99.90
40600;DHT22;26309;50.924;4.754;2022-11-15T18:23:42;13.40;99.90
40600;DHT22;26309;50.924;4.754;2022-11-15T18:26:10;13.40;99.90
40600;DHT22;26309;50.924;4.754;2022-11-15T18:28:41;13.50;99.90
40600;DHT22;26309;50.924;4.754;2022-11-15T18:31:22;13.50;99.90
40600;DHT22;26309;50.924;4.754;2022-11-15T18:33:49;13.50;99.90
40600;DHT22;26309;50.924;4.754;2022-11-15T18:36:21;13.50;99.90
40600;DHT22;26309;50.924;4.754;2022-11-15T18:38:46;13.50;99.90